Time;durP1;ratioP1;P1;durP2;ratioP2;P2;SDS_P1;SDS_P2;PMS_P1;PMS_P2;Temp;Humidity;BMP_temperature;BMP_pressure;BME280_temperature;BME280_humidity;BME280_pressure;Samples;Min_cycle;Max_cycle;Signal;HPM_P1;HPM_P2
2021/04/23 00:01:46;;;;;;;3.40;1.90;;;;;;;;;;5092393;28;20726;-72
2021/04/23 00:04:12;;;;;;;3.13;1.40;;;;;;;;;;5094342;28;20385;-72
2021/04/23 00:06:42;;;;;;;1.85;1.65;;;7.80;91.50;;;;;;5093430;28;20374;-72
2021/04/23 00:09:14;;;;;;;3.13;1.60;;;;;;;;;;5094236;28;20505;-72
2021/04/23 00:11:43;;;;;;;3.67;1.98;;;;;;;;;;5093387;28;20457;-72
2021/04/23 00:14:13;;;;;;;3.92;1.50;;;7.90;88.00;;;;;;5093978;28;20414;-72
2021/04/23 00:16:39;;;;;;;2.08;1.60;;;;;;;;;;5092952;28;20389;-72
2021/04/23 00:19:06;;;;;;;4.90;1.40;;;;;;;;;;5075654;28;20466;-72
2021/04/23 00:21:33;;;;;;;1.88;1.50;;;;;;;;;;5093424;28;20370;-72
2021/04/23 00:23:59;;;;;;;2.17;1.60;;;7.70;90.30;;;;;;5093697;28;20453;-72
2021/04/23 00:26:26;;;;;;;5.30;1.90;;;;;;;;;;5092882;28;20484;-72
2021/04/23 00:28:52;;;;;;;3.45;1.20;;;;;;;;;;5093817;28;20381;-71
2021/04/23 00:31:18;;;;;;;2.30;1.40;;;;;;;;;;5093750;28;20531;-75
2021/04/23 00:33:44;;;;;;;2.97;1.60;;;;;;;;;;5093333;28;20389;-72
2021/04/23 00:36:10;;;;;;;4.38;1.67;;;;;;;;;;5093651;28;20374;-72
2021/04/23 00:38:37;;;;;;;3.45;1.30;;;;;;;;;;5092813;28;20362;-72
2021/04/23 00:41:03;;;;;;;4.80;1.50;;;;;;;;;;5093499;28;20374;-72
2021/04/23 00:43:33;;;;;;;2.40;1.52;;;8.00;88.10;;;;;;5092386;28;20846;-72
2021/04/23 00:46:00;;;;;;;2.97;1.50;;;;;;;;;;5093441;28;20429;-72
2021/04/23 00:48:26;;;;;;;5.57;2.17;;;;;;;;;;5092383;28;20378;-72
2021/04/23 00:51:01;;;;;;;3.25;1.67;;;;;;;;;;5093820;28;20362;-72
2021/04/23 00:53:32;;;;;;;2.80;1.70;;;7.70;90.70;;;;;;5092620;28;20461;-72
2021/04/23 00:55:59;;;;;;;4.43;1.60;;;;;;;;;;5093351;28;20427;-72
2021/04/23 00:58:27;;;;;;;3.73;1.77;;;;;;;;;;5092451;28;20453;-72
2021/04/23 01:01:16;;;;;;;2.03;1.73;;;7.40;88.00;;;;;;5092852;28;20991;-72
2021/04/23 01:03:42;;;;;;;3.70;1.58;;;;;;;;;;5092388;28;20378;-72
2021/04/23 01:06:19;;;;;;;2.90;1.80;;;;;;;;;;5093013;28;20402;-72
2021/04/23 01:08:46;;;;;;;3.42;1.42;;;;;;;;;;5092892;28;20401;-72
2021/04/23 01:11:13;;;;;;;3.67;1.67;;;;;;;;;;5092675;28;20764;-72
2021/04/23 01:13:39;;;;;;;2.72;1.50;;;;;;;;;;5091283;28;20370;-72
2021/04/23 01:16:07;;;;;;;2.00;1.20;;;;;;;;;;5074659;28;20738;-72
2021/04/23 01:18:33;;;;;;;3.50;1.30;;;;;;;;;;5092020;28;20362;-72
2021/04/23 01:21:09;;;;;;;3.40;1.50;;;;;;;;;;5092732;28;20362;-72
2021/04/23 01:23:36;;;;;;;5.45;1.40;;;;;;;;;;5092214;28;20436;-72
2021/04/23 01:26:03;;;;;;;4.57;1.40;;;;;;;;;;5074749;28;20395;-72
2021/04/23 01:28:29;;;;;;;2.93;1.50;;;;;;;;;;5092194;28;20531;-72
2021/04/23 01:30:56;;;;;;;3.40;1.90;;;;;;;;;;5092752;28;20366;-72
2021/04/23 01:33:22;;;;;;;2.73;1.30;;;;;;;;;;5074154;28;20406;-74
2021/04/23 01:35:48;;;;;;;2.70;1.40;;;;;;;;;;5092161;28;20373;-72
2021/04/23 01:38:14;;;;;;;2.90;1.40;;;;;;;;;;5092737;28;20663;-72
2021/04/23 01:40:42;;;;;;;2.90;1.30;;;7.30;91.00;;;;;;5091587;28;20377;-72
2021/04/23 01:43:08;;;;;;;3.22;1.55;;;;;;;;;;5092420;28;20374;-72
2021/04/23 01:45:34;;;;;;;2.60;1.60;;;7.10;95.70;;;;;;5090981;28;20475;-72
2021/04/23 01:48:00;;;;;;;1.98;1.30;;;;;;;;;;5092768;28;20409;-72
2021/04/23 01:50:26;;;;;;;5.32;1.70;;;;;;;;;;5091705;28;20378;-73
2021/04/23 01:52:52;;;;;;;2.22;1.40;;;;;;;;;;5092095;28;20377;-72
2021/04/23 01:55:20;;;;;;;3.70;1.42;;;;;;;;;;5089343;28;20398;-72
2021/04/23 01:57:46;;;;;;;6.13;1.70;;;;;;;;;;5082463;28;20414;-73
2021/04/23 02:00:14;;;;;;;2.35;1.58;;;;;;;;;;5084153;28;20477;-74
2021/04/23 02:02:40;;;;;;;4.60;1.73;;;;;;;;;;5082643;28;20715;-72
2021/04/23 02:05:07;;;;;;;2.50;1.40;;;;;;;;;;5080184;28;20406;-72
2021/04/23 02:07:33;;;;;;;3.85;1.50;;;;;;;;;;5080773;28;20377;-73
2021/04/23 02:10:00;;;;;;;2.72;1.50;;;;;;;;;;5083773;28;20375;-72
2021/04/23 02:12:26;;;;;;;3.60;1.58;;;;;;;;;;5062516;28;21192;-74
2021/04/23 02:14:52;;;;;;;3.25;1.60;;;;;;;;;;5082443;28;20412;-74
2021/04/23 02:17:18;;;;;;;3.22;1.80;;;;;;;;;;5081164;28;20484;-72
2021/04/23 02:19:44;;;;;;;4.00;1.73;;;;;;;;;;5079795;28;20494;-72
2021/04/23 02:22:10;;;;;;;3.40;1.75;;;;;;;;;;5081736;28;20385;-72
2021/04/23 02:24:36;;;;;;;3.00;1.55;;;;;;;;;;5080953;28;20418;-72
2021/04/23 02:27:02;;;;;;;3.37;2.37;;;;;;;;;;5078210;28;20475;-71
2021/04/23 02:29:28;;;;;;;2.25;1.70;;;;;;;;;;5081448;28;21043;-74
2021/04/23 02:31:55;;;;;;;1.80;1.50;;;;;;;;;;5063696;28;20901;-72
2021/04/23 02:34:23;;;;;;;3.30;1.60;;;;;;;;;;5080787;28;20391;-72
2021/04/23 02:36:49;;;;;;;3.03;1.50;;;;;;;;;;5078618;28;20483;-72
2021/04/23 02:39:16;;;;;;;2.78;1.65;;;;;;;;;;5082352;28;20377;-72
2021/04/23 02:41:43;;;;;;;2.03;1.27;;;;;;;;;;5079344;28;20796;-72
2021/04/23 02:44:09;;;;;;;1.67;1.48;;;;;;;;;;5080250;28;20443;-73
2021/04/23 02:46:36;;;;;;;1.95;1.45;;;;;;;;;;5078958;28;20417;-72
2021/04/23 02:49:03;;;;;;;3.75;1.80;;;;;;;;;;5080553;28;20381;-71
2021/04/23 02:51:31;;;;;;;3.53;1.85;;;;;;;;;;5084575;28;20378;-73
2021/04/23 02:53:58;;;;;;;2.77;1.50;;;;;;;;;;5088984;28;20399;-71
2021/04/23 02:56:24;;;;;;;2.88;1.55;;;;;;;;;;5086943;28;20802;-72
2021/04/23 02:58:51;;;;;;;2.08;1.58;;;;;;;;;;5086136;28;20377;-72
2021/04/23 03:01:20;;;;;;;1.80;1.60;;;;;;;;;;5088659;28;20900;-72
2021/04/23 03:03:46;;;;;;;4.13;1.60;;;;;;;;;;5088280;28;20471;-72
2021/04/23 03:06:12;;;;;;;3.30;1.90;;;;;;;;;;5089336;28;20421;-72
2021/04/23 03:08:39;;;;;;;2.47;1.58;;;;;;;;;;5088300;28;20718;-72
2021/04/23 03:11:10;;;;;;;4.57;1.70;;;;;;;;;;5087439;28;20377;-71
2021/04/23 03:13:36;;;;;;;2.58;1.60;;;;;;;;;;5087823;28;20374;-72
2021/04/23 03:16:04;;;;;;;3.10;1.70;;;;;;;;;;5088745;28;20378;-72
2021/04/23 03:18:31;;;;;;;4.97;2.13;;;;;;;;;;5087209;28;20427;-73
2021/04/23 03:20:59;;;;;;;3.25;1.52;;;;;;;;;;5088684;28;20465;-72
2021/04/23 03:23:25;;;;;;;3.20;1.80;;;;;;;;;;5088302;28;20382;-72
2021/04/23 03:25:52;;;;;;;2.40;1.80;;;;;;;;;;5083875;28;20418;-72
2021/04/23 03:28:18;;;;;;;4.00;2.00;;;;;;;;;;5086494;28;20729;-72
2021/04/23 03:30:44;;;;;;;3.05;1.75;;;;;;;;;;5087341;28;20718;-73
2021/04/23 03:33:11;;;;;;;4.13;1.90;;;;;;;;;;5088113;28;20401;-72
2021/04/23 03:35:38;;;;;;;3.33;1.70;;;;;;;;;;5085402;28;20386;-72
2021/04/23 03:38:08;;;;;;;2.70;1.47;;;;;;;;;;5088054;28;20464;-72
2021/04/23 03:40:35;;;;;;;2.65;1.95;;;;;;;;;;5086568;28;20382;-71
2021/04/23 03:43:01;;;;;;;3.53;1.90;;;;;;;;;;5088199;28;20439;-72
2021/04/23 03:45:27;;;;;;;2.63;1.83;;;;;;;;;;5087499;28;20433;-73
2021/04/23 03:47:54;;;;;;;2.80;2.00;;;;;;;;;;5084360;28;20423;-72
2021/04/23 03:50:23;;;;;;;4.25;2.30;;;;;;;;;;5070066;28;20374;-73
2021/04/23 03:52:49;;;;;;;2.88;1.88;;;;;;;;;;5086708;28;20380;-72
2021/04/23 03:55:20;;;;;;;4.18;2.05;;;;;;;;;;5086286;28;20374;-72
2021/04/23 03:57:46;;;;;;;4.80;1.90;;;;;;;;;;5084472;28;20387;-71
2021/04/23 04:00:16;;;;;;;4.72;2.45;;;4.70;99.90;;;;;;5087713;28;21218;-72
2021/04/23 04:02:42;;;;;;;3.60;2.03;;;;;;;;;;5087689;28;20834;-71
2021/04/23 04:05:09;;;;;;;2.67;1.67;;;;;;;;;;5070223;28;20398;-71
2021/04/23 04:07:35;;;;;;;5.40;1.83;;;;;;;;;;5087111;28;20379;-72
2021/04/23 04:10:01;;;;;;;5.88;1.90;;;;;;;;;;5088586;28;20362;-71
2021/04/23 04:12:27;;;;;;;2.47;2.00;;;;;;;;;;5088187;28;20483;-72
2021/04/23 04:14:53;;;;;;;2.30;1.90;;;;;;;;;;5087623;28;20409;-72
2021/04/23 04:17:19;;;;;;;3.00;2.10;;;4.50;99.90;;;;;;5089938;28;20378;-72
2021/04/23 04:19:45;;;;;;;3.97;2.28;;;;;;;;;;5089268;28;20374;-72
2021/04/23 04:22:11;;;;;;;2.65;1.60;;;;;;;;;;5088592;28;20369;-72
2021/04/23 04:24:37;;;;;;;4.05;2.10;;;;;;;;;;5087844;28;20376;-72
2021/04/23 04:27:03;;;;;;;6.45;2.65;;;;;;;;;;5088754;28;20726;-72
2021/04/23 04:29:29;;;;;;;3.47;2.17;;;;;;;;;;5089012;28;20734;-71
2021/04/23 04:31:55;;;;;;;4.20;2.15;;;;;;;;;;5087558;28;20362;-72
2021/04/23 04:34:21;;;;;;;6.20;2.38;;;;;;;;;;5088335;28;20375;-72
2021/04/23 04:36:47;;;;;;;3.35;2.10;;;;;;;;;;5087924;28;20382;-72
2021/04/23 04:39:13;;;;;;;3.15;1.77;;;;;;;;;;5088790;28;20382;-72
2021/04/23 04:41:39;;;;;;;3.90;2.13;;;;;;;;;;5087840;28;20370;-73
2021/04/23 04:44:05;;;;;;;3.90;1.90;;;4.40;99.90;;;;;;5088386;28;20462;-72
2021/04/23 04:46:31;;;;;;;3.83;2.17;;;;;;;;;;5088166;28;20406;-72
2021/04/23 04:48:57;;;;;;;5.40;2.05;;;;;;;;;;5090897;28;20416;-72
2021/04/23 04:51:23;;;;;;;5.73;2.60;;;;;;;;;;5092600;28;20722;-71
2021/04/23 04:53:49;;;;;;;4.30;2.60;;;;;;;;;;5091712;28;20366;-72
2021/04/23 04:56:16;;;;;;;2.70;2.00;;;;;;;;;;5092639;28;20374;-72
2021/04/23 04:58:42;;;;;;;2.70;2.10;;;;;;;;;;5073265;28;20416;-72
2021/04/23 05:01:09;;;;;;;3.80;2.10;;;;;;;;;;5092481;28;20381;-72
2021/04/23 05:03:35;;;;;;;3.92;2.05;;;;;;;;;;5092130;28;20374;-74
2021/04/23 05:06:01;;;;;;;4.20;2.28;;;;;;;;;;5092317;28;20531;-72
2021/04/23 05:08:27;;;;;;;2.72;2.13;;;;;;;;;;5092405;28;20781;-72
2021/04/23 05:10:53;;;;;;;5.82;2.90;;;;;;;;;;5091424;28;20709;-73
2021/04/23 05:13:19;;;;;;;6.35;2.67;;;;;;;;;;5092229;28;20369;-73
2021/04/23 05:15:45;;;;;;;4.00;2.28;;;;;;;;;;5091645;28;20377;-73
2021/04/23 05:18:11;;;;;;;3.05;1.98;;;;;;;;;;5092585;28;20385;-73
2021/04/23 05:20:38;;;;;;;4.78;2.40;;;;;;;;;;5091934;28;20362;-75
2021/04/23 05:23:04;;;;;;;3.60;1.92;;;;;;;;;;5092227;28;20436;-73
2021/04/23 05:25:31;;;;;;;2.90;2.00;;;;;;;;;;5092356;28;20481;-73
2021/04/23 05:27:57;;;;;;;2.40;2.20;;;;;;;;;;5092093;28;20366;-73
2021/04/23 05:30:25;;;;;;;2.20;2.00;;;;;;;;;;5075099;28;20366;-73
2021/04/23 05:32:51;;;;;;;3.40;2.33;;;;;;;;;;5091846;28;20374;-71
2021/04/23 05:35:19;;;;;;;2.55;2.08;;;;;;;;;;5092645;28;20366;-71
2021/04/23 05:37:45;;;;;;;3.03;1.90;;;;;;;;;;5092021;28;20374;-71
2021/04/23 05:40:13;;;;;;;3.97;2.22;;;;;;;;;;5093059;28;20369;-71
2021/04/23 05:42:39;;;;;;;5.28;2.90;;;;;;;;;;5091765;28;20370;-73
2021/04/23 05:45:06;;;;;;;2.92;2.20;;;5.50;99.90;;;;;;5092590;28;20422;-71
2021/04/23 05:47:33;;;;;;;4.30;2.28;;;;;;;;;;5092416;28;20429;-71
2021/04/23 05:49:59;;;;;;;6.28;2.78;;;;;;;;;;5091971;28;20417;-71
2021/04/23 05:52:25;;;;;;;4.05;2.10;;;;;;;;;;5092756;28;20757;-72
2021/04/23 05:54:51;;;;;;;5.72;1.90;;;;;;;;;;5091785;28;20435;-72
2021/04/23 05:57:17;;;;;;;3.38;2.20;;;;;;;;;;5092414;28;20771;-72
2021/04/23 05:59:43;;;;;;;4.20;2.05;;;;;;;;;;5091053;28;20473;-73
2021/04/23 06:02:09;;;;;;;3.53;2.10;;;;;;;;;;5092394;28;20393;-72
2021/04/23 06:04:35;;;;;;;2.58;2.38;;;;;;;;;;5074277;28;20377;-72
2021/04/23 06:07:01;;;;;;;4.38;2.78;;;;;;;;;;5091897;28;20374;-72
2021/04/23 06:09:27;;;;;;;3.75;3.00;;;;;;;;;;5091983;28;20358;-72
2021/04/23 06:11:53;;;;;;;3.15;2.60;;;6.00;99.90;;;;;;5091675;28;20431;-72
2021/04/23 06:14:22;;;;;;;3.58;2.50;;;;;;;;;;5092067;28;20874;-72
2021/04/23 06:16:49;;;;;;;6.65;3.17;;;;;;;;;;5091220;28;20390;-72
2021/04/23 06:19:15;;;;;;;3.70;2.37;;;;;;;;;;5073640;28;20379;-72
2021/04/23 06:21:41;;;;;;;3.15;1.83;;;;;;;;;;5091322;28;20378;-75
2021/04/23 06:24:07;;;;;;;5.82;2.20;;;;;;;;;;5091386;28;20370;-72
2021/04/23 06:26:32;;;;;;;5.75;2.70;;;6.90;99.70;;;;;;5091652;28;20402;-72
2021/04/23 06:28:58;;;;;;;4.25;2.40;;;;;;;;;;5090756;28;21011;-72
2021/04/23 06:31:24;;;;;;;5.90;2.70;;;;;;;;;;5091693;28;20967;-72
2021/04/23 06:33:51;;;;;;;7.07;2.60;;;;;;;;;;5090543;28;20366;-72
2021/04/23 06:36:19;;;;;;;7.10;3.10;;;6.80;98.90;;;;;;5091737;28;20920;-71
2021/04/23 06:38:45;;;;;;;3.70;2.60;;;;;;;;;;5090426;28;20405;-72
2021/04/23 06:41:12;;;;;;;3.58;3.00;;;;;;;;;;5091747;28;20753;-72
2021/04/23 06:43:38;;;;;;;5.22;2.65;;;;;;;;;;5091298;28;20388;-72
2021/04/23 06:46:04;;;;;;;4.70;3.00;;;;;;;;;;5072616;28;20417;-72
2021/04/23 06:48:31;;;;;;;6.43;2.70;;;;;;;;;;5091662;28;20447;-71
2021/04/23 06:50:57;;;;;;;3.60;2.92;;;;;;;;;;5090077;28;20927;-71
2021/04/23 06:53:24;;;;;;;4.40;2.50;;;7.40;99.90;;;;;;5091176;28;20366;-72
2021/04/23 06:55:50;;;;;;;4.80;3.28;;;;;;;;;;5090484;28;20382;-72
2021/04/23 06:58:16;;;;;;;7.05;2.92;;;;;;;;;;5091258;28;20436;-72
2021/04/23 07:00:42;;;;;;;5.53;2.60;;;;;;;;;;5090442;28;20399;-74
2021/04/23 07:03:10;;;;;;;3.70;2.80;;;7.70;97.10;;;;;;5090751;28;20865;-72
2021/04/23 07:05:37;;;;;;;8.70;3.10;;;;;;;;;;5090943;28;20410;-72
2021/04/23 07:08:03;;;;;;;5.00;3.10;;;;;;;;;;5090275;28;20374;-72
2021/04/23 07:10:29;;;;;;;6.30;3.13;;;;;;;;;;5090447;28;20707;-72
2021/04/23 07:12:56;;;;;;;5.38;2.80;;;;;;;;;;5090390;28;20393;-72
2021/04/23 07:15:24;;;;;;;4.93;3.10;;;;;;;;;;5069602;28;20483;-71
2021/04/23 07:17:54;;;;;;;4.70;3.38;;;7.50;96.90;;;;;;5090152;28;20782;-70
2021/04/23 07:20:20;;;;;;;5.03;2.38;;;;;;;;;;5092197;28;20393;-68
2021/04/23 07:22:47;;;;;;;4.72;2.60;;;;;;;;;;5088754;28;20370;-70
2021/04/23 07:25:14;;;;;;;3.95;2.72;;;;;;;;;;5070070;28;20429;-69
2021/04/23 07:27:40;;;;;;;5.40;2.78;;;8.00;99.90;;;;;;5088024;28;20461;-70
2021/04/23 07:30:06;;;;;;;4.80;2.60;;;;;;;;;;5087862;28;20753;-69
2021/04/23 07:32:33;;;;;;;5.80;2.95;;;;;;;;;;5089224;28;20414;-69
2021/04/23 07:34:59;;;;;;;5.97;2.85;;;;;;;;;;5070203;28;20469;-69
2021/04/23 07:37:25;;;;;;;4.85;2.70;;;;;;;;;;5088040;28;20380;-70
2021/04/23 07:39:51;;;;;;;5.73;2.70;;;;;;;;;;5102211;28;20372;-70
2021/04/23 07:42:17;;;;;;;4.65;3.20;;;;;;;;;;5110123;28;20402;-69
2021/04/23 07:44:43;;;;;;;6.70;2.90;;;;;;;;;;5110166;28;20396;-74
2021/04/23 07:47:09;;;;;;;5.30;2.40;;;;;;;;;;5109651;28;20388;-70
2021/04/23 07:49:36;;;;;;;3.73;3.03;;;;;;;;;;5110440;28;20368;-69
2021/04/23 07:52:02;;;;;;;7.10;3.40;;;;;;;;;;5108836;28;20512;-69
2021/04/23 07:54:28;;;;;;;3.70;2.63;;;;;;;;;;5110242;28;20388;-70
2021/04/23 07:56:54;;;;;;;3.67;2.40;;;;;;;;;;5109617;28;20361;-69
2021/04/23 07:59:20;;;;;;;4.20;2.95;;;;;;;;;;5110227;28;20372;-68
2021/04/23 08:01:50;;;;;;;5.28;2.80;;;;;;;;;;5101728;28;20378;-73
2021/04/23 08:04:16;;;;;;;4.63;2.60;;;;;;;;;;5089410;28;20887;-69
2021/04/23 08:06:42;;;;;;;7.63;2.95;;;;;;;;;;5090000;28;20501;-69
2021/04/23 08:09:08;;;;;;;5.97;3.22;;;;;;;;;;5088632;28;20366;-69
2021/04/23 08:11:34;;;;;;;5.72;3.13;;;;;;;;;;5089696;28;20373;-69
2021/04/23 08:14:00;;;;;;;6.20;2.70;;;9.60;93.40;;;;;;5070807;28;20720;-69
2021/04/23 08:16:26;;;;;;;4.17;2.47;;;;;;;;;;5071422;28;20403;-69
2021/04/23 08:18:53;;;;;;;4.13;2.90;;;;;;;;;;5089443;28;20386;-69
2021/04/23 08:21:19;;;;;;;5.10;2.38;;;;;;;;;;5089626;28;20374;-69
2021/04/23 08:23:47;;;;;;;5.75;2.80;;;;;;;;;;5093662;28;20416;-73
2021/04/23 08:26:14;;;;;;;5.68;2.85;;;9.50;90.30;;;;;;5093594;28;20909;-69
2021/04/23 08:28:40;;;;;;;4.55;2.22;;;;;;;;;;5093570;28;20398;-69
2021/04/23 08:31:06;;;;;;;6.30;3.58;;;;;;;;;;5093080;28;20465;-69
2021/04/23 08:33:32;;;;;;;3.55;2.47;;;;;;;;;;5094228;28;20362;-69
2021/04/23 08:35:58;;;;;;;6.55;3.00;;;10.20;96.00;;;;;;5093324;28;20401;-69
2021/04/23 08:38:25;;;;;;;3.10;2.80;;;;;;;;;;5094424;28;20406;-69
2021/04/23 08:40:55;;;;;;;4.38;2.78;;;;;;;;;;5075075;28;20436;-70
2021/04/23 08:43:21;;;;;;;3.60;2.35;;;10.60;95.30;;;;;;5093873;28;20473;-69
2021/04/23 08:45:47;;;;;;;3.40;2.50;;;;;;;;;;5092803;28;20804;-74
2021/04/23 08:48:13;;;;;;;5.32;2.80;;;10.30;94.80;;;;;;5093444;28;20409;-72
2021/04/23 08:50:39;;;;;;;7.13;2.40;;;;;;;;;;5093725;28;20870;-72
2021/04/23 08:53:06;;;;;;;2.43;1.83;;;;;;;;;;5092830;28;20409;-72
2021/04/23 08:55:32;;;;;;;4.82;2.60;;;;;;;;;;5093745;28;20371;-72
2021/04/23 08:57:58;;;;;;;3.83;2.60;;;;;;;;;;5092776;28;20465;-73
2021/04/23 09:00:25;;;;;;;7.68;2.45;;;11.10;91.00;;;;;;5093613;28;20367;-73
2021/04/23 09:02:51;;;;;;;5.60;2.55;;;;;;;;;;5093066;28;20374;-76
2021/04/23 09:05:17;;;;;;;3.90;2.87;;;;;;;;;;5093177;28;20405;-73
2021/04/23 09:08:01;;;;;;;3.67;2.47;;;11.70;90.70;;;;;;5093306;28;20377;-72
2021/04/23 09:10:28;;;;;;;4.30;2.70;;;;;;;;;;5093207;28;20457;-72
2021/04/23 09:13:26;;;;;;;3.67;2.75;;;11.00;90.30;;;;;;5092439;28;20799;-72
2021/04/23 09:15:55;;;;;;;3.30;2.50;;;11.10;90.30;;;;;;5047687;28;20404;-74
2021/04/23 09:18:21;;;;;;;4.50;2.70;;;11.60;90.30;;;;;;5093479;28;20769;-72
2021/04/23 09:20:59;;;;;;;5.80;3.00;;;11.20;89.40;;;;;;5093543;28;20403;-73
2021/04/23 09:23:25;;;;;;;4.78;2.72;;;;;;;;;;5093439;28;20374;-73
2021/04/23 09:25:55;;;;;;;4.32;2.22;;;11.20;88.40;;;;;;5092767;28;20405;-77
2021/04/23 09:28:40;;;;;;;6.40;2.70;;;11.50;90.90;;;;;;5093267;28;20739;-73
2021/04/23 09:31:22;;;;;;;6.07;2.85;;;;;;;;;;5092373;28;20382;-72
2021/04/23 09:34:08;;;;;;;5.93;2.90;;;12.00;88.90;;;;;;5092496;28;20366;-73
2021/04/23 09:36:43;;;;;;;4.70;3.00;;;;;;;;;;5074614;28;20743;-73
2021/04/23 09:39:18;;;;;;;6.72;3.28;;;12.00;89.00;;;;;;5092304;28;20370;-73
2021/04/23 09:42:04;;;;;;;5.38;2.75;;;12.20;85.10;;;;;;5092895;28;20877;-72
2021/04/23 09:44:37;;;;;;;6.97;3.00;;;;;;;;;;5092619;28;20398;-72
2021/04/23 09:47:13;;;;;;;4.32;2.78;;;;;;;;;;5091913;28;20402;-73
2021/04/23 09:49:40;;;;;;;7.27;3.33;;;12.20;92.50;;;;;;5092614;28;20410;-72
2021/04/23 09:52:08;;;;;;;5.28;2.72;;;;;;;;;;5091528;28;20369;-73
2021/04/23 09:54:34;;;;;;;5.32;2.65;;;;;;;;;;5092675;28;20369;-71
2021/04/23 09:57:02;;;;;;;3.65;3.00;;;;;;;;;;5091816;28;20696;-72
2021/04/23 09:59:29;;;;;;;3.63;2.53;;;;;;;;;;5092606;28;20370;-72
2021/04/23 10:02:00;;;;;;;4.93;3.20;;;12.50;85.60;;;;;;5091672;28;20374;-74
2021/04/23 10:04:28;;;;;;;5.40;3.00;;;;;;;;;;5092511;28;20378;-72
2021/04/23 10:07:06;;;;;;;7.22;3.50;;;;;;;;;;5091910;28;20489;-75
2021/04/23 10:09:33;;;;;;;5.88;3.25;;;;;;;;;;5092173;28;20712;-73
2021/04/23 10:11:59;;;;;;;6.97;2.92;;;;;;;;;;5091461;28;20409;-73
2021/04/23 10:14:25;;;;;;;4.55;2.72;;;;;;;;;;5092186;28;20480;-73
2021/04/23 10:16:58;;;;;;;3.50;2.55;;;13.40;91.90;;;;;;5092146;28;20370;-73
2021/04/23 10:19:25;;;;;;;5.95;3.00;;;13.80;88.70;;;;;;5074220;28;20842;-73
2021/04/23 10:21:52;;;;;;;4.57;2.92;;;;;;;;;;5091994;28;20382;-73
2021/04/23 10:24:19;;;;;;;6.30;2.85;;;;;;;;;;5091493;28;20407;-73
2021/04/23 10:26:45;;;;;;;6.57;3.00;;;;;;;;;;5091968;28;20394;-74
2021/04/23 10:29:13;;;;;;;4.00;2.80;;;;;;;;;;5073320;28;20370;-73
2021/04/23 10:31:39;;;;;;;6.00;3.05;;;;;;;;;;5092119;28;20374;-73
2021/04/23 10:34:06;;;;;;;5.88;3.30;;;;;;;;;;5091013;28;20381;-73
2021/04/23 10:36:33;;;;;;;5.80;3.40;;;13.50;84.40;;;;;;5091910;28;20449;-73
2021/04/23 10:39:00;;;;;;;5.63;3.10;;;;;;;;;;5091055;28;20460;-73
2021/04/23 10:41:33;;;;;;;6.07;3.30;;;14.40;84.40;;;;;;5091540;28;20421;-73
2021/04/23 10:44:00;;;;;;;4.55;2.95;;;14.60;91.00;;;;;;5072367;28;20465;-73
2021/04/23 10:46:28;;;;;;;5.30;3.00;;;;;;;;;;5090206;28;20878;-74
2021/04/23 10:49:06;;;;;;;5.45;3.10;;;14.40;90.30;;;;;;5091798;28;20431;-73
2021/04/23 10:51:32;;;;;;;5.80;2.70;;;;;;;;;;5091253;28;20462;-73
2021/04/23 10:54:14;;;;;;;6.53;2.53;;;14.60;79.60;;;;;;5090987;28;20461;-75
2021/04/23 10:56:40;;;;;;;5.45;2.78;;;;;;;;;;5086038;28;20390;-73
2021/04/23 10:59:26;;;;;;;6.07;2.50;;;14.80;78.40;;;;;;5090468;28;20392;-73
2021/04/23 11:02:11;;;;;;;7.35;2.80;;;14.50;89.00;;;;;;5091519;28;20869;-74
2021/04/23 11:05:01;;;;;;;6.90;2.63;;;14.80;79.10;;;;;;5091237;28;20393;-73
2021/04/23 11:07:28;;;;;;;8.23;2.72;;;14.70;77.40;;;;;;5106980;28;20504;-74
2021/04/23 11:10:03;;;;;;;7.43;2.70;;;15.00;70.30;;;;;;5091519;28;20847;-73
2021/04/23 11:12:29;;;;;;;4.67;2.30;;;;;;;;;;5091385;28;20473;-73
2021/04/23 11:15:16;;;;;;;5.18;2.47;;;15.90;76.00;;;;;;5091693;28;20412;-74
2021/04/23 11:17:44;;;;;;;5.93;2.78;;;;;;;;;;5090982;28;20394;-73
2021/04/23 11:20:30;;;;;;;6.20;2.60;;;16.90;76.20;;;;;;5090430;28;20398;-73
2021/04/23 11:22:58;;;;;;;6.15;2.72;;;;;;;;;;5091020;28;20447;-75
2021/04/23 11:25:25;;;;;;;3.85;2.70;;;;;;;;;;5090757;28;20500;-72
2021/04/23 11:28:00;;;;;;;4.13;2.03;;;;;;;;;;5088921;28;20384;-72
2021/04/23 11:30:26;;;;;;;4.68;2.20;;;17.00;78.60;;;;;;5078489;28;20938;-73
2021/04/23 11:32:53;;;;;;;5.78;2.20;;;18.30;73.00;;;;;;5071009;28;20383;-73
2021/04/23 11:35:21;;;;;;;7.00;2.53;;;;;;;;;;5069965;28;20454;-73
2021/04/23 11:37:48;;;;;;;3.65;2.10;;;18.60;75.60;;;;;;5069933;28;20383;-72
2021/04/23 11:40:21;;;;;;;5.27;2.50;;;;;;;;;;5070180;28;20391;-73
2021/04/23 11:42:48;;;;;;;3.10;2.30;;;19.40;77.20;;;;;;5052781;28;20387;-73
2021/04/23 11:45:18;;;;;;;3.80;2.40;;;;;;;;;;5051645;28;20457;-73
2021/04/23 11:47:50;;;;;;;6.35;2.30;;;18.20;67.80;;;;;;5074991;28;20735;-73
2021/04/23 11:50:21;;;;;;;4.72;2.58;;;;;;;;;;5086742;28;20483;-73
2021/04/23 11:52:54;;;;;;;5.18;2.42;;;20.30;59.70;;;;;;5090135;28;20421;-73
2021/04/23 11:55:26;;;;;;;4.00;2.53;;;20.00;68.40;;;;;;5087380;28;20394;-74
2021/04/23 11:57:53;;;;;;;4.35;2.40;;;;;;;;;;5097390;28;20397;-73
2021/04/23 12:00:24;;;;;;;5.30;2.40;;;18.90;59.70;;;;;;5089383;28;20532;-73
2021/04/23 12:02:52;;;;;;;5.80;1.70;;;;;;;;;;5089594;28;20427;-73
2021/04/23 12:05:39;;;;;;;3.90;2.20;;;19.20;55.00;;;;;;5071323;28;20792;-73
2021/04/23 12:08:08;;;;;;;4.25;2.30;;;;;;;;;;5089173;28;20398;-75
2021/04/23 12:10:41;;;;;;;4.32;2.30;;;19.90;67.40;;;;;;5090859;28;20377;-73
2021/04/23 12:13:11;;;;;;;8.07;2.90;;;;;;;;;;5071488;28;20391;-74
2021/04/23 12:15:38;;;;;;;4.40;2.55;;;;;;;;;;5080024;28;20396;-75
2021/04/23 12:18:06;;;;;;;4.60;2.40;;;;;;;;;;5084043;28;20796;-75
2021/04/23 12:20:40;;;;;;;5.15;2.78;;;19.60;58.20;;;;;;5091310;28;20362;-74
2021/04/23 12:23:06;;;;;;;6.13;2.15;;;;;;;;;;5085039;28;20862;-73
2021/04/23 12:25:34;;;;;;;3.25;2.00;;;19.00;57.10;;;;;;5088109;28;20476;-74
2021/04/23 12:28:15;;;;;;;4.38;2.65;;;;;;;;;;5087801;28;20456;-73
2021/04/23 12:30:41;;;;;;;5.07;2.50;;;;;;;;;;5087662;28;20439;-74
2021/04/23 12:33:07;;;;;;;4.30;2.53;;;19.50;57.90;;;;;;5087604;28;20382;-73
2021/04/23 12:35:36;;;;;;;2.70;2.00;;;19.00;58.60;;;;;;5088538;28;20412;-72
2021/04/23 12:38:02;;;;;;;4.18;2.00;;;;;;;;;;5087978;28;20419;-77
2021/04/23 12:40:32;;;;;;;3.67;2.42;;;;;;;;;;5089276;28;20394;-72
2021/04/23 12:42:58;;;;;;;10.25;2.90;;;19.70;69.80;;;;;;5090297;28;20425;-73
2021/04/23 12:45:24;;;;;;;6.40;2.00;;;19.30;68.60;;;;;;5090892;28;20887;-73
2021/04/23 12:47:51;;;;;;;3.58;1.80;;;;;;;;;;5089778;28;20382;-71
2021/04/23 12:50:30;;;;;;;5.10;2.50;;;19.80;58.90;;;;;;5095436;28;20365;-71
2021/04/23 12:52:56;;;;;;;6.73;2.30;;;20.20;65.00;;;;;;5103956;28;20430;-72
2021/04/23 12:55:23;;;;;;;5.37;2.73;;;;;;;;;;5088375;28;20473;-70
2021/04/23 12:57:50;;;;;;;6.05;1.98;;;;;;;;;;5089363;28;20407;-71
2021/04/23 13:00:18;;;;;;;3.55;2.20;;;;;;;;;;5087486;28;20858;-74
2021/04/23 13:02:44;;;;;;;5.38;2.20;;;;;;;;;;5088502;28;20377;-73
2021/04/23 13:05:15;;;;;;;5.53;2.10;;;19.50;68.60;;;;;;5087950;28;20406;-71
2021/04/23 13:07:47;;;;;;;4.60;2.20;;;19.60;56.60;;;;;;5088581;28;20894;-69
2021/04/23 13:10:15;;;;;;;3.80;2.43;;;19.80;69.80;;;;;;5091092;28;20392;-71
2021/04/23 13:12:42;;;;;;;4.60;2.15;;;;;;;;;;5092341;28;20388;-72
2021/04/23 13:15:24;;;;;;;3.47;2.15;;;20.20;54.10;;;;;;5095554;28;20493;-75
2021/04/23 13:17:51;;;;;;;5.00;2.20;;;20.30;56.30;;;;;;5112612;28;20794;-72
2021/04/23 13:20:22;;;;;;;3.95;2.25;;;20.10;55.10;;;;;;5112116;28;20368;-71
2021/04/23 13:23:06;;;;;;;4.30;2.30;;;;;;;;;;5112641;28;20379;-71
2021/04/23 13:25:34;;;;;;;5.90;2.10;;;;;;;;;;5112565;28;20503;-72
2021/04/23 13:28:06;;;;;;;4.00;2.20;;;20.40;57.20;;;;;;5094582;28;20755;-75
2021/04/23 13:30:34;;;;;;;3.03;1.85;;;20.70;64.90;;;;;;5112611;28;20380;-73
2021/04/23 13:33:02;;;;;;;5.18;2.08;;;;;;;;;;5113110;28;20380;-73
2021/04/23 13:35:30;;;;;;;4.68;2.03;;;21.00;64.60;;;;;;5112730;28;20411;-74
2021/04/23 13:38:33;;;;;;;3.50;2.20;;;21.10;60.30;;;;;;5094965;28;20714;-73
2021/04/23 13:41:20;;;;;;;3.03;1.97;;;21.60;57.80;;;;;;5010649;28;20497;-74
2021/04/23 13:43:51;;;;;;;5.47;2.53;;;;;;;;;;5106540;28;20443;-72
2021/04/23 13:46:18;;;;;;;3.28;2.00;;;21.20;54.80;;;;;;5112598;28;20400;-73
2021/04/23 13:48:53;;;;;;;6.20;2.30;;;21.40;61.50;;;;;;5094380;28;20392;-73
2021/04/23 13:51:24;;;;;;;3.80;2.05;;;;;;;;;;5112191;28;20412;-72
2021/04/23 13:53:51;;;;;;;3.80;2.38;;;;;;;;;;5095058;28;20368;-73
2021/04/23 13:56:27;;;;;;;5.75;2.10;;;20.90;53.10;;;;;;5111921;28;20390;-72
2021/04/23 13:58:52;;;;;;;4.60;2.17;;;21.70;59.80;;;;;;5112649;28;20377;-72
2021/04/23 14:01:38;;;;;;;5.75;2.67;;;21.40;53.50;;;;;;5107426;28;20382;-72
2021/04/23 14:04:07;;;;;;;3.70;1.90;;;21.70;62.00;;;;;;5076135;28;20515;-72
2021/04/23 14:06:33;;;;;;;4.13;2.40;;;;;;;;;;5092229;28;20459;-72
2021/04/23 14:08:59;;;;;;;6.68;2.17;;;22.90;55.30;;;;;;5074189;28;20885;-72
2021/04/23 14:11:25;;;;;;;5.32;2.35;;;22.90;58.80;;;;;;5091625;28;20370;-72
2021/04/23 14:13:51;;;;;;;3.28;2.10;;;;;;;;;;5074111;28;20394;-74
2021/04/23 14:16:17;;;;;;;2.92;2.20;;;21.70;52.50;;;;;;5073290;28;20481;-72
2021/04/23 14:18:43;;;;;;;2.77;1.70;;;;;;;;;;5091389;28;20501;-73